This is the latest recevied weather packets stored in our database for station/object HK6REC-20. If no packets are shown the sender has not sent any weather packets the latest 10 day(s).
| Time | Temp. | Humidity | Pressure | Rain* | Wind** | Luminosity | Snow |
|---|---|---|---|---|---|---|---|
| 1778012162 | 25° C | 70% | 1010 hPa | 0 mm | - | - | - |
| 1778010961 | 24.44° C | 71% | 1009 hPa | 0 mm | - | - | - |
| 1778009760 | 25° C | 71% | 1010 hPa | 0 mm | - | - | - |
| 1778008560 | 25° C | 71% | 1011 hPa | 0 mm | - | - | - |
| 1778007359 | 25° C | 71% | 1010 hPa | 0 mm | - | - | - |
| 1778006158 | 25° C | 71% | 1011 hPa | 0 mm | - | - | - |
| 1778004957 | 25° C | 71% | 1012 hPa | 0 mm | - | - | - |
| 1778003756 | 23.89° C | 77% | 1012 hPa | 0 mm | - | - | - |
| 1778002555 | 23.89° C | 75% | 1012 hPa | 0 mm | - | - | - |
| 1778001354 | 23.89° C | 73% | 1014 hPa | 0 mm | - | - | - |
| 1778000153 | 23.89° C | 73% | 1013 hPa | 0 mm | - | - | - |
| 1777998952 | 23.89° C | 73% | 1013 hPa | 0 mm | - | - | - |
| 1777997751 | 23.89° C | 73% | 1015 hPa | 0 mm | - | - | - |
| 1777996550 | 23.33° C | 73% | 1014 hPa | 0 mm | - | - | - |
| 1777995349 | 20° C | 89% | 1014 hPa | 0 mm | - | - | - |
| 1777994148 | 20° C | 89% | 1015 hPa | 0 mm | - | - | - |
| 1777992947 | 20.56° C | 84% | 1015 hPa | 0 mm | - | - | - |
| 1777991746 | 20.56° C | 84% | 1015 hPa | 0 mm | - | - | - |
| 1777990545 | 20° C | 84% | 1017 hPa | 0 mm | - | - | - |
| 1777989344 | 18.89° C | 85% | 1016 hPa | 0 mm | - | - | - |
| 1777988143 | 18.33° C | 86% | 1016 hPa | 0 mm | - | - | - |
| 1777986943 | 18.33° C | 86% | 1016 hPa | 0 mm | - | - | - |
| 1777985742 | 18.89° C | 83% | 1016 hPa | 0 mm | - | - | - |
| 1777984541 | 15.56° C | 95% | 1016 hPa | 0 mm | - | - | - |
| 1777983340 | 15.56° C | 95% | 1015 hPa | 0 mm | - | - | - |
* Rain latest hour (hover to see other rain measurements)
** Current wind speed in m/s (hover to see current wind gust speed)